Ituverava, Brazil
Current Conditions -  °F | °C
As of 11:00 PM on Wednesday 26 Nov 2014 (Local Time) from SBUR Reporting Station
Broken Clouds Broken Clouds  
Wind Chill: 72°   Ceiling: 9000
Heat Index: 72°   Visibility: 6mi
Dew Point: 72°   Wind: 6mph
Humidity: 100%   Direction: 350°N
Pressure: 29.97"   Gusts: NA
Location:  20.33°S, 47.79°W
Report Text: SBUR 270100Z 35005KT 9999 FEW045 BKN090 22/22 Q1015
Loading
Personal Weather Stations






























Interactive Weather Map New forecast layout! Learn more

10-Day Weather Forecast

Advertisements
Track Severe Weather on mobile